Time;durP1;ratioP1;P1;durP2;ratioP2;P2;SDS_P1;SDS_P2;PMS_P1;PMS_P2;Temp;Humidity;BMP_temperature;BMP_pressure;BME280_temperature;BME280_humidity;BME280_pressure;Samples;Min_cycle;Max_cycle;Signal;HPM_P1;HPM_P2
2021/03/22 00:02:18;;;;;;;0.52;0.30;;;-0.90;99.90;;;;;;4962979;27;20095;-81
2021/03/22 00:04:47;;;;;;;4.20;0.50;;;-0.80;99.90;;;;;;4971347;27;20141;-84
2021/03/22 00:07:10;;;;;;;2.47;0.20;;;-0.90;99.90;;;;;;4968801;27;20086;-84
2021/03/22 00:09:33;;;;;;;3.40;0.20;;;-0.90;99.90;;;;;;4967985;27;20118;-83
2021/03/22 00:11:56;;;;;;;1.60;0.40;;;-0.90;99.90;;;;;;4969176;27;20098;-84
2021/03/22 00:14:19;;;;;;;1.77;0.40;;;-0.80;99.90;;;;;;4969205;27;20091;-84
2021/03/22 00:16:44;;;;;;;0.63;0.17;;;-0.80;99.90;;;;;;4958718;27;20104;-83
2021/03/22 00:19:07;;;;;;;2.95;0.40;;;-0.80;99.90;;;;;;4969226;27;20095;-84
2021/03/22 00:21:31;;;;;;;0.70;0.25;;;-0.80;99.90;;;;;;4967698;27;20595;-82
2021/03/22 00:23:54;;;;;;;2.25;0.40;;;-0.70;99.90;;;;;;4948984;27;20088;-81
2021/03/22 00:26:17;;;;;;;0.77;0.28;;;-0.60;99.90;;;;;;4962962;27;20179;-83
2021/03/22 00:28:43;;;;;;;3.53;0.50;;;-0.50;99.90;;;;;;4963361;27;20530;-82
2021/03/22 00:31:09;;;;;;;6.72;0.60;;;-0.40;99.90;;;;;;4968800;27;20089;-83
2021/03/22 00:33:34;;;;;;;2.78;0.70;;;-0.40;99.90;;;;;;4969652;27;20602;-82
2021/03/22 00:35:58;;;;;;;4.97;0.63;;;-0.40;99.90;;;;;;4969365;27;20086;-83
2021/03/22 00:38:22;;;;;;;0.90;0.30;;;-0.40;99.90;;;;;;4968185;27;20187;-84
2021/03/22 00:40:51;;;;;;;2.50;0.70;;;-0.40;99.90;;;;;;4963379;27;20175;-84
2021/03/22 00:43:14;;;;;;;6.28;0.70;;;-0.40;99.90;;;;;;4966675;27;20109;-83
2021/03/22 00:45:42;;;;;;;2.15;0.52;;;-0.40;99.90;;;;;;4966748;27;20147;-83
2021/03/22 00:48:08;;;;;;;2.75;0.90;;;-0.40;99.90;;;;;;4965190;27;20180;-83
2021/03/22 00:50:34;;;;;;;3.88;0.85;;;-0.40;99.90;;;;;;4965417;27;20096;-84
2021/03/22 00:52:57;;;;;;;1.40;0.40;;;-0.40;99.90;;;;;;4965431;27;20096;-84
2021/03/22 00:55:21;;;;;;;2.78;0.73;;;;;;;;;;4968318;27;20563;-82
2021/03/22 00:57:46;;;;;;;0.40;0.20;;;-0.50;99.90;;;;;;4961001;27;20141;-81
2021/03/22 01:00:17;;;;;;;2.47;0.40;;;-0.60;99.90;;;;;;4964015;27;20181;-85
2021/03/22 01:02:40;;;;;;;4.03;0.40;;;-0.70;99.90;;;;;;4950294;27;20086;-83
2021/03/22 01:05:07;;;;;;;3.65;0.85;;;-0.70;99.90;;;;;;4958949;27;20172;-84
2021/03/22 01:07:31;;;;;;;5.95;0.80;;;-0.80;99.90;;;;;;4965554;27;20096;-84
2021/03/22 01:09:54;;;;;;;0.68;0.32;;;-0.70;99.90;;;;;;4966796;27;20092;-83
2021/03/22 01:12:19;;;;;;;3.05;0.63;;;-0.80;99.90;;;;;;4957204;27;20196;-85
2021/03/22 01:14:42;;;;;;;1.88;0.50;;;;;;;;;;4959477;27;20536;-85
2021/03/22 01:17:06;;;;;;;2.88;0.45;;;-0.90;99.90;;;;;;4965119;27;20459;-84
2021/03/22 01:19:31;;;;;;;3.00;0.40;;;-0.80;99.90;;;;;;4968596;27;20081;-83
2021/03/22 01:21:55;;;;;;;;;;;-0.80;99.90;;;;;;4965694;27;20177;-83
2021/03/22 01:24:21;;;;;;;2.55;0.60;;;-0.70;99.90;;;;;;4965536;27;20432;-83
2021/03/22 01:26:45;;;;;;;2.88;0.68;;;-0.60;99.90;;;;;;4967452;27;20140;-84
2021/03/22 01:29:10;;;;;;;1.33;0.57;;;-0.60;99.90;;;;;;4964877;27;20533;-84
2021/03/22 01:31:33;;;;;;;1.38;0.50;;;-0.60;99.90;;;;;;4965269;27;20180;-84
2021/03/22 01:33:59;;;;;;;2.88;0.55;;;-0.60;99.90;;;;;;4967192;27;20119;-83
2021/03/22 01:36:27;;;;;;;5.05;0.70;;;-0.50;99.90;;;;;;4966282;27;20091;-80
2021/03/22 01:38:50;;;;;;;4.10;0.77;;;-0.60;99.90;;;;;;4962625;27;20150;-84
2021/03/22 01:41:36;;;;;;;3.03;0.40;;;-0.70;99.90;;;;;;4963126;27;20246;-85
2021/03/22 01:44:26;;;;;;;5.70;0.93;;;-0.70;99.90;;;;;;4963320;27;20194;-82
2021/03/22 01:46:53;;;;;;;2.63;0.40;;;-0.70;99.90;;;;;;4963432;27;20132;-84
2021/03/22 01:49:19;;;;;;;2.63;0.40;;;-0.70;99.90;;;;;;4966313;27;20132;-84
2021/03/22 01:51:44;;;;;;;1.00;0.50;;;-0.80;99.90;;;;;;4966995;27;20090;-84
2021/03/22 01:54:10;;;;;;;1.77;0.60;;;-0.80;99.90;;;;;;4967359;27;20092;-83
2021/03/22 01:56:42;;;;;;;2.08;0.70;;;-0.90;99.90;;;;;;4968311;27;20089;-84
2021/03/22 01:59:05;;;;;;;2.00;0.60;;;-0.90;99.90;;;;;;4965454;27;20083;-85
2021/03/22 02:01:30;;;;;;;4.13;0.80;;;0.40;99.90;;;;;;4965504;27;20169;-84
2021/03/22 02:03:54;;;;;;;1.70;0.60;;;-0.90;99.90;;;;;;4966669;27;20129;-83
2021/03/22 02:06:17;;;;;;;0.68;0.45;;;-1.00;99.90;;;;;;4967085;27;20607;-82
2021/03/22 02:08:44;;;;;;;2.50;0.57;;;-1.00;99.90;;;;;;4954299;27;20109;-84
2021/03/22 02:11:18;;;;;;;5.95;0.50;;;-1.00;99.90;;;;;;4964658;27;20114;-84
2021/03/22 02:13:42;;;;;;;0.70;0.45;;;-0.90;99.90;;;;;;4964204;27;20134;-81
2021/03/22 02:16:08;;;;;;;2.33;0.85;;;-0.80;99.90;;;;;;4966807;27;20097;-84
2021/03/22 02:18:45;;;;;;;4.93;0.68;;;-0.70;99.90;;;;;;4966499;27;20118;-84
2021/03/22 02:21:34;;;;;;;1.30;0.60;;;-0.70;99.90;;;;;;4962000;27;20153;-83
2021/03/22 02:24:43;;;;;;;2.42;0.88;;;-0.80;99.90;;;;;;4961618;27;20085;-85
2021/03/22 02:27:40;;;;;;;2.15;0.63;;;-0.80;99.90;;;;;;4965124;27;20627;-84
2021/03/22 02:30:28;;;;;;;1.92;0.60;;;-0.90;99.90;;;;;;4963125;27;20122;-84
2021/03/22 02:33:30;;;;;;;1.95;0.50;;;-0.90;99.90;;;;;;4940682;27;20095;-83
2021/03/22 02:36:07;;;;;;;1.88;0.43;;;-1.00;99.90;;;;;;4943160;27;20136;-84
2021/03/22 02:38:36;;;;;;;1.50;0.60;;;-1.10;99.90;;;;;;4965893;27;20104;-85
2021/03/22 02:41:11;;;;;;;2.05;0.60;;;-1.20;99.90;;;;;;4967228;27;20600;-84
2021/03/22 02:43:36;;;;;;;4.63;0.50;;;-1.10;99.90;;;;;;4962785;27;20107;-80
2021/03/22 02:46:03;;;;;;;6.63;0.80;;;-1.20;99.90;;;;;;4958896;27;20157;-84
2021/03/22 02:48:31;;;;;;;4.03;0.50;;;-1.20;99.90;;;;;;4958641;27;20564;-85
2021/03/22 02:51:04;;;;;;;4.65;0.57;;;-1.20;99.90;;;;;;4966785;27;20169;-84
2021/03/22 02:53:43;;;;;;;3.05;0.80;;;-1.30;99.90;;;;;;4961261;27;21625;-84
2021/03/22 02:56:20;;;;;;;1.98;0.70;;;-1.40;99.90;;;;;;4961547;27;20530;-84
2021/03/22 02:58:49;;;;;;;5.68;0.50;;;-1.40;99.90;;;;;;4963233;27;20151;-84
2021/03/22 03:01:19;;;;;;;4.53;0.68;;;-1.40;99.90;;;;;;4966833;27;20235;-83
2021/03/22 03:03:45;;;;;;;2.05;0.60;;;-1.40;99.90;;;;;;4963593;27;20124;-85
2021/03/22 03:06:09;;;;;;;2.17;0.60;;;-1.40;99.90;;;;;;4967654;27;20098;-84
2021/03/22 03:08:37;;;;;;;1.98;0.45;;;-1.40;99.90;;;;;;4969768;27;20136;-84
2021/03/22 03:11:00;;;;;;;3.67;1.02;;;-1.40;99.90;;;;;;4970266;27;20162;-84
2021/03/22 03:13:23;;;;;;;2.20;0.82;;;-1.40;99.90;;;;;;4969059;27;20091;-85
2021/03/22 03:15:46;;;;;;;4.10;0.80;;;;;;;;;;4969969;27;20118;-81
2021/03/22 03:18:10;;;;;;;3.65;1.00;;;-1.40;99.90;;;;;;4968835;27;20096;-83
2021/03/22 03:20:33;;;;;;;4.93;0.93;;;-1.50;99.90;;;;;;4971691;27;20570;-84
2021/03/22 03:22:59;;;;;;;5.38;0.68;;;-1.40;99.90;;;;;;4970287;27;20093;-84
2021/03/22 03:25:26;;;;;;;2.47;0.45;;;-1.50;99.90;;;;;;4968465;27;20099;-84
2021/03/22 03:27:49;;;;;;;4.72;0.70;;;-1.50;99.90;;;;;;4967870;27;20094;-83
2021/03/22 03:30:15;;;;;;;2.55;0.70;;;-1.50;99.90;;;;;;4967956;27;20539;-82
2021/03/22 03:32:38;;;;;;;6.68;0.80;;;-1.40;99.90;;;;;;4967952;27;20110;-84
2021/03/22 03:35:01;;;;;;;1.98;0.80;;;-1.40;99.90;;;;;;4970699;27;20086;-82
2021/03/22 03:37:25;;;;;;;6.13;0.77;;;-1.40;99.90;;;;;;4969463;27;20088;-82
2021/03/22 03:39:48;;;;;;;3.80;0.73;;;-1.40;99.90;;;;;;4968839;27;20589;-84
2021/03/22 03:42:13;;;;;;;2.97;1.10;;;-1.40;99.90;;;;;;4969441;27;20219;-85
2021/03/22 03:44:36;;;;;;;4.95;1.20;;;-1.40;99.90;;;;;;4967571;27;20176;-84
2021/03/22 03:46:59;;;;;;;2.20;1.10;;;-1.50;99.90;;;;;;4953331;27;20186;-83
2021/03/22 03:49:24;;;;;;;7.72;1.17;;;;;;;;;;4956579;27;20085;-83
2021/03/22 03:51:47;;;;;;;5.88;0.90;;;-1.50;99.90;;;;;;4964928;27;20159;-83
2021/03/22 03:54:11;;;;;;;3.55;0.80;;;-1.50;99.90;;;;;;4970337;27;20148;-85
2021/03/22 03:56:35;;;;;;;1.48;0.82;;;-1.50;99.90;;;;;;4969294;27;20083;-84
2021/03/22 03:59:06;;;;;;;1.65;0.70;;;-1.50;99.90;;;;;;4969927;27;20107;-84
2021/03/22 04:01:33;;;;;;;2.63;0.68;;;-1.50;99.90;;;;;;4968434;27;20109;-84
2021/03/22 04:03:56;;;;;;;5.40;0.80;;;-1.50;99.90;;;;;;4969347;27;20083;-84
2021/03/22 04:06:24;;;;;;;3.58;0.80;;;-1.60;99.90;;;;;;4960674;27;20084;-84
2021/03/22 04:08:50;;;;;;;1.65;0.63;;;-1.60;99.90;;;;;;4967257;27;20154;-84
2021/03/22 04:11:24;;;;;;;3.50;0.80;;;-1.60;99.90;;;;;;4970463;27;20215;-85
2021/03/22 04:13:48;;;;;;;2.63;0.60;;;-1.70;99.90;;;;;;4966455;27;20107;-83
2021/03/22 04:16:14;;;;;;;2.03;0.73;;;-1.60;99.90;;;;;;4966441;27;20455;-84
2021/03/22 04:18:39;;;;;;;8.10;1.30;;;-1.50;99.90;;;;;;4967034;27;20080;-84
2021/03/22 04:21:02;;;;;;;4.13;0.73;;;-1.60;99.90;;;;;;4968371;27;20082;-84
2021/03/22 04:23:25;;;;;;;4.90;0.88;;;-1.50;99.90;;;;;;4969062;27;20173;-85
2021/03/22 04:25:48;;;;;;;6.78;0.82;;;-1.40;99.90;;;;;;4971434;27;20090;-84
2021/03/22 04:28:12;;;;;;;2.70;1.00;;;-1.40;99.90;;;;;;4969535;27;20143;-83
2021/03/22 04:30:37;;;;;;;3.28;0.75;;;-1.30;99.90;;;;;;4970009;27;20516;-83
2021/03/22 04:33:01;;;;;;;3.38;0.73;;;-1.30;99.90;;;;;;4970300;27;20095;-84
2021/03/22 04:35:26;;;;;;;4.47;0.93;;;-1.30;99.90;;;;;;4967980;27;20174;-84
2021/03/22 04:37:55;;;;;;;1.30;0.75;;;-1.30;99.90;;;;;;4967864;27;20448;-84
2021/03/22 04:40:22;;;;;;;5.85;1.10;;;-1.30;99.90;;;;;;4962588;27;20094;-85
2021/03/22 04:42:45;;;;;;;3.30;0.75;;;;;;;;;;4968030;27;20124;-84
2021/03/22 04:45:09;;;;;;;2.78;0.55;;;-1.20;99.90;;;;;;4968000;27;20911;-82
2021/03/22 04:47:33;;;;;;;2.40;0.80;;;-0.50;99.90;;;;;;4968183;27;20618;-83
2021/03/22 04:49:56;;;;;;;5.68;0.73;;;-1.20;99.90;;;;;;4965251;27;20096;-84
2021/03/22 04:52:20;;;;;;;5.53;1.10;;;-1.10;99.90;;;;;;4967439;27;20572;-85
2021/03/22 04:54:43;;;;;;;3.85;0.68;;;-1.20;99.90;;;;;;4963749;27;20089;-81
2021/03/22 04:57:22;;;;;;;4.30;0.70;;;-1.20;99.90;;;;;;4967244;27;20097;-85
2021/03/22 04:59:46;;;;;;;4.72;0.65;;;-1.30;99.90;;;;;;4963341;27;20108;-85
2021/03/22 05:02:09;;;;;;;5.18;0.80;;;-1.40;99.90;;;;;;4958793;27;20091;-84
2021/03/22 05:04:35;;;;;;;4.30;1.08;;;-1.40;99.90;;;;;;4966397;27;20177;-83
2021/03/22 05:06:58;;;;;;;1.60;0.57;;;-1.40;99.90;;;;;;4966197;27;20435;-83
2021/03/22 05:09:22;;;;;;;3.63;0.85;;;-1.30;99.90;;;;;;4967590;27;20086;-85
2021/03/22 05:11:45;;;;;;;3.25;1.20;;;;;;;;;;4966273;27;20090;-83
2021/03/22 05:14:11;;;;;;;3.90;1.15;;;-1.20;99.90;;;;;;4968359;27;20103;-83
2021/03/22 05:16:34;;;;;;;7.00;1.45;;;-1.20;99.90;;;;;;4962029;27;20194;-80
2021/03/22 05:18:57;;;;;;;2.05;1.42;;;-1.20;99.90;;;;;;4965688;27;20540;-85
2021/03/22 05:21:21;;;;;;;5.65;1.58;;;-1.00;99.90;;;;;;4965623;27;20180;-83
2021/03/22 05:23:44;;;;;;;3.30;1.60;;;-0.90;99.90;;;;;;4966613;27;20405;-84
2021/03/22 05:26:10;;;;;;;5.22;1.10;;;-0.80;99.90;;;;;;4967516;27;20241;-84
2021/03/22 05:28:36;;;;;;;6.40;1.20;;;-0.70;99.90;;;;;;4966308;27;20174;-84
2021/03/22 05:31:00;;;;;;;7.07;1.30;;;;;;;;;;4966859;27;20167;-85
2021/03/22 05:33:25;;;;;;;5.18;1.05;;;-0.60;99.90;;;;;;4964674;27;20133;-83
2021/03/22 05:35:53;;;;;;;7.15;1.33;;;-0.50;99.90;;;;;;4965110;27;20158;-81
2021/03/22 05:38:17;;;;;;;3.95;1.50;;;;;;;;;;4964092;27;20170;-84
2021/03/22 05:40:44;;;;;;;10.20;1.50;;;-0.30;99.90;;;;;;4963579;27;20091;-82
2021/03/22 05:43:42;;;;;;;15.20;1.70;;;-0.10;99.90;;;;;;4967379;27;20097;-85
2021/03/22 05:46:13;;;;;;;3.63;1.00;;;0.00;99.90;;;;;;4950505;27;20418;-85
2021/03/22 05:48:57;;;;;;;6.55;1.25;;;0.10;99.90;;;;;;4966278;27;20079;-84
2021/03/22 05:51:46;;;;;;;7.53;1.25;;;0.10;99.90;;;;;;4962852;27;20119;-85
2021/03/22 05:54:29;;;;;;;2.30;1.10;;;0.00;99.90;;;;;;4962164;27;20116;-85
2021/03/22 05:57:00;;;;;;;7.22;1.38;;;0.10;99.90;;;;;;4966493;27;20465;-85
2021/03/22 05:59:34;;;;;;;8.65;1.52;;;0.20;99.90;;;;;;4966650;27;23036;-84
2021/03/22 06:02:02;;;;;;;4.70;1.42;;;0.30;99.90;;;;;;4965026;27;20157;-84
2021/03/22 06:04:37;;;;;;;4.78;1.35;;;0.40;99.90;;;;;;4964922;27;20080;-85
2021/03/22 06:07:00;;;;;;;4.25;1.30;;;0.50;99.90;;;;;;4964143;27;20143;-83
2021/03/22 06:09:32;;;;;;;6.55;1.77;;;0.60;99.90;;;;;;4963375;27;20117;-84
2021/03/22 06:12:01;;;;;;;8.65;1.80;;;0.80;99.90;;;;;;4964754;27;20094;-84
2021/03/22 06:14:34;;;;;;;2.13;1.20;;;0.90;99.90;;;;;;4955889;27;20176;-85
2021/03/22 06:17:10;;;;;;;11.10;1.90;;;1.10;99.90;;;;;;4963447;27;20164;-85
2021/03/22 06:19:38;;;;;;;3.47;1.60;;;1.30;99.90;;;;;;4961817;27;20081;-84
2021/03/22 06:22:01;;;;;;;3.38;1.58;;;;;;;;;;4962603;27;20088;-84
2021/03/22 06:24:27;;;;;;;7.28;1.85;;;1.70;99.90;;;;;;4963057;27;20177;-82
2021/03/22 06:26:51;;;;;;;5.78;1.70;;;1.80;99.90;;;;;;4967684;27;20689;-84
2021/03/22 06:29:24;;;;;;;14.35;1.55;;;2.00;99.90;;;;;;4963548;27;20093;-84
2021/03/22 06:31:51;;;;;;;3.90;1.38;;;2.10;99.90;;;;;;4966292;27;20113;-84
2021/03/22 06:34:19;;;;;;;4.63;1.77;;;2.20;99.90;;;;;;4963823;27;20137;-83
2021/03/22 06:36:42;;;;;;;5.97;2.05;;;2.50;99.90;;;;;;4965142;27;20089;-86
2021/03/22 06:39:08;;;;;;;2.75;1.40;;;2.60;99.90;;;;;;4964478;27;20093;-81
2021/03/22 06:41:37;;;;;;;5.93;1.70;;;2.50;99.90;;;;;;4965459;27;20085;-85
2021/03/22 06:44:05;;;;;;;6.75;1.83;;;2.10;99.90;;;;;;4963157;27;20089;-85
2021/03/22 06:46:29;;;;;;;8.80;1.60;;;2.60;99.90;;;;;;4964550;27;20090;-85
2021/03/22 06:48:58;;;;;;;7.03;1.83;;;2.70;99.90;;;;;;4953596;27;20168;-84
2021/03/22 06:51:21;;;;;;;4.18;1.92;;;2.70;99.90;;;;;;4963044;27;20138;-83
2021/03/22 06:53:46;;;;;;;7.82;1.65;;;2.80;99.90;;;;;;4965318;27;20112;-83
2021/03/22 06:56:14;;;;;;;6.80;1.27;;;2.80;99.90;;;;;;4965603;27;20082;-86
2021/03/22 06:58:38;;;;;;;6.78;1.80;;;2.90;99.90;;;;;;4964615;27;20086;-86
2021/03/22 07:01:15;;;;;;;16.38;1.63;;;3.00;99.90;;;;;;4964809;27;20136;-86
2021/03/22 07:03:38;;;;;;;8.50;1.83;;;3.30;99.90;;;;;;4961593;27;20085;-82
2021/03/22 07:06:15;;;;;;;3.75;1.45;;;4.00;99.90;;;;;;4966131;27;20177;-86
2021/03/22 07:08:40;;;;;;;8.75;2.05;;;4.30;99.90;;;;;;4961634;27;20092;-85
2021/03/22 07:11:10;;;;;;;9.80;2.05;;;4.50;99.90;;;;;;4966273;27;20172;-84
2021/03/22 07:13:50;;;;;;;5.82;1.50;;;4.70;99.90;;;;;;4963494;27;20168;-85
2021/03/22 07:16:21;;;;;;;7.07;1.63;;;4.90;99.90;;;;;;4957236;27;20476;-84
2021/03/22 07:19:07;;;;;;;5.57;1.50;;;5.10;99.90;;;;;;4960535;27;20167;-85
2021/03/22 07:21:32;;;;;;;12.43;2.27;;;5.20;99.90;;;;;;4962327;27;20107;-85
2021/03/22 07:24:04;;;;;;;5.32;1.33;;;5.80;99.90;;;;;;4962393;27;20163;-85
2021/03/22 07:26:40;;;;;;;12.27;2.10;;;6.00;99.90;;;;;;4961781;27;20080;-85
2021/03/22 07:29:22;;;;;;;3.85;1.48;;;6.10;99.90;;;;;;4962159;27;20431;-85
2021/03/22 07:31:57;;;;;;;19.10;2.38;;;6.60;99.90;;;;;;4961659;27;20450;-84
2021/03/22 07:34:42;;;;;;;4.25;1.42;;;6.60;99.90;;;;;;4955746;27;20080;-84
2021/03/22 07:37:20;;;;;;;7.97;1.58;;;6.70;99.90;;;;;;4960321;27;20080;-83
2021/03/22 07:39:47;;;;;;;4.88;1.55;;;6.10;99.90;;;;;;4960253;27;20462;-83
2021/03/22 07:42:30;;;;;;;8.00;1.65;;;5.60;99.90;;;;;;4958866;27;20546;-84
2021/03/22 07:45:20;;;;;;;5.97;1.98;;;5.50;99.90;;;;;;4962415;27;20528;-83
2021/03/22 07:48:12;;;;;;;12.65;1.77;;;5.40;99.90;;;;;;4959227;27;20094;-84
2021/03/22 07:50:41;;;;;;;5.30;1.67;;;5.30;99.90;;;;;;4960747;27;20153;-84
2021/03/22 07:53:12;;;;;;;4.95;1.45;;;5.10;99.90;;;;;;4964428;27;20085;-84
2021/03/22 07:55:59;;;;;;;7.40;1.60;;;5.00;99.90;;;;;;4970511;27;20105;-84
2021/03/22 07:58:59;;;;;;;6.30;1.73;;;4.90;99.90;;;;;;4957631;27;20516;-84
2021/03/22 08:01:32;;;;;;;7.05;1.67;;;4.80;99.90;;;;;;4965355;27;20084;-83
2021/03/22 08:04:28;;;;;;;3.42;1.50;;;4.70;99.90;;;;;;4968486;27;20088;-85
2021/03/22 08:07:09;;;;;;;9.30;2.00;;;4.70;99.90;;;;;;4963283;27;20120;-85
2021/03/22 08:09:46;;;;;;;8.38;1.55;;;4.80;99.90;;;;;;4963076;27;20267;-84
2021/03/22 08:12:17;;;;;;;3.67;1.40;;;4.90;99.90;;;;;;4964897;27;20112;-84
2021/03/22 08:14:42;;;;;;;7.13;1.88;;;5.00;99.90;;;;;;4964914;27;20177;-84
2021/03/22 08:17:39;;;;;;;8.48;1.98;;;5.00;99.90;;;;;;4964959;27;20443;-84
2021/03/22 08:20:13;;;;;;;9.30;1.52;;;5.20;99.90;;;;;;4963961;27;20128;-85
2021/03/22 08:22:43;;;;;;;10.32;1.15;;;5.70;99.90;;;;;;4964684;27;20082;-84
2021/03/22 08:25:21;;;;;;;9.52;1.92;;;6.30;99.90;;;;;;4966561;27;20593;-85
2021/03/22 08:27:52;;;;;;;10.48;1.63;;;6.30;99.90;;;;;;4966012;27;20081;-84
2021/03/22 08:30:29;;;;;;;10.23;1.73;;;7.20;99.90;;;;;;4965686;27;20438;-84
2021/03/22 08:33:00;;;;;;;10.60;1.55;;;8.20;99.90;;;;;;4965075;27;20110;-84
2021/03/22 08:35:30;;;;;;;7.85;1.52;;;8.50;99.90;;;;;;4964925;27;20131;-84
2021/03/22 08:37:57;;;;;;;10.05;1.88;;;8.60;99.90;;;;;;4965452;27;20079;-84
2021/03/22 08:40:26;;;;;;;7.15;1.77;;;9.50;99.90;;;;;;4965091;27;20148;-84
2021/03/22 08:42:54;;;;;;;6.10;1.30;;;10.10;99.90;;;;;;4966094;27;20605;-84
2021/03/22 08:45:25;;;;;;;5.07;1.20;;;10.50;99.90;;;;;;4965993;27;20083;-84
2021/03/22 08:47:54;;;;;;;6.72;1.38;;;11.40;99.90;;;;;;4965726;27;20089;-85
2021/03/22 08:50:20;;;;;;;7.10;1.38;;;11.10;99.90;;;;;;4966324;27;20145;-84
2021/03/22 08:52:54;;;;;;;13.05;1.67;;;10.10;99.90;;;;;;4964743;27;20503;-84
2021/03/22 08:55:20;;;;;;;6.97;1.70;;;10.40;99.90;;;;;;4963860;27;20626;-84
2021/03/22 08:57:59;;;;;;;5.82;1.30;;;11.40;99.90;;;;;;4964511;27;20083;-81
2021/03/22 09:00:38;;;;;;;4.85;1.30;;;11.90;99.90;;;;;;4939494;27;20117;-81
2021/03/22 09:03:36;;;;;;;4.65;1.38;;;12.60;99.90;;;;;;4922873;27;20103;-82
2021/03/22 09:06:15;;;;;;;6.30;1.45;;;12.30;99.90;;;;;;4917992;27;20075;-83
2021/03/22 09:08:42;;;;;;;6.22;1.15;;;12.50;99.90;;;;;;4911958;27;20091;-83
2021/03/22 09:11:29;;;;;;;5.45;1.52;;;11.90;99.90;;;;;;4909502;27;20084;-80
2021/03/22 09:14:19;;;;;;;;;;;11.70;99.90;;;;;;4909398;27;20089;-84
2021/03/22 09:16:50;;;;;;;7.60;1.95;;;10.40;99.90;;;;;;4925774;27;20021;-84
2021/03/22 09:19:46;;;;;;;4.68;1.00;;;9.90;99.90;;;;;;4909833;27;20090;-84
2021/03/22 09:22:44;;;;;;;7.43;1.48;;;9.60;99.90;;;;;;4923478;27;20086;-84
2021/03/22 09:25:13;;;;;;;6.72;1.80;;;9.30;99.90;;;;;;4926596;27;20113;-85
2021/03/22 09:27:37;;;;;;;4.03;1.50;;;9.20;99.90;;;;;;4911603;27;22051;-83
2021/03/22 09:30:34;;;;;;;5.28;1.70;;;9.80;99.90;;;;;;4896801;27;20162;-83
2021/03/22 09:33:01;;;;;;;8.68;1.70;;;10.10;99.90;;;;;;4903818;27;20087;-84
2021/03/22 09:36:08;;;;;;;9.43;1.55;;;9.70;99.90;;;;;;4914314;27;20079;-84
2021/03/22 09:38:42;;;;;;;5.95;1.67;;;9.50;99.90;;;;;;4911652;27;20093;-83
2021/03/22 09:41:31;;;;;;;4.00;1.45;;;9.10;99.90;;;;;;4911040;27;20174;-82
2021/03/22 09:44:18;;;;;;;5.28;1.35;;;8.90;99.90;;;;;;4891796;27;20082;-83
2021/03/22 09:47:19;;;;;;;7.63;1.23;;;9.00;99.90;;;;;;4927526;27;20492;-82
2021/03/22 09:50:17;;;;;;;12.77;1.73;;;9.00;99.90;;;;;;4918588;27;20090;-84
2021/03/22 09:53:28;;;;;;;8.43;1.67;;;9.00;99.90;;;;;;4899530;27;20109;-84
2021/03/22 09:56:41;;;;;;;7.32;1.67;;;9.00;99.90;;;;;;4921171;27;20102;-84
2021/03/22 09:59:42;;;;;;;9.27;2.50;;;9.00;99.90;;;;;;4925826;27;20538;-83
2021/03/22 10:05:59;;;;;;;9.27;1.80;;;9.90;99.90;;;;;;4912762;27;20277;-84
2021/03/22 10:08:41;;;;;;;8.32;1.60;;;9.90;99.90;;;;;;4913928;27;20079;-84
2021/03/22 10:11:22;;;;;;;7.32;1.70;;;9.90;99.90;;;;;;4910998;27;20575;-84
2021/03/22 10:13:59;;;;;;;7.32;1.73;;;10.20;99.90;;;;;;4914545;27;20084;-85
2021/03/22 10:16:43;;;;;;;8.90;1.58;;;10.10;99.90;;;;;;4910137;27;20092;-83
2021/03/22 10:19:21;;;;;;;10.27;1.70;;;9.90;99.90;;;;;;4887479;27;20162;-83
2021/03/22 10:28:54;;;;;;;2.42;0.70;;;9.40;99.90;;;;;;4902035;27;20083;-83
2021/03/22 10:31:45;;;;;;;2.55;0.82;;;9.50;99.90;;;;;;4901868;27;20082;-83
2021/03/22 10:34:23;;;;;;;3.92;0.80;;;9.80;99.90;;;;;;4897444;27;20501;-78
2021/03/22 10:40:36;;;;;;;3.55;0.80;;;9.80;99.90;;;;;;4893740;27;20177;-81
2021/03/22 10:43:39;;;;;;;3.72;0.68;;;9.70;99.90;;;;;;4895687;27;20083;-83
2021/03/22 10:50:01;;;;;;;2.85;0.75;;;9.50;99.90;;;;;;4900988;27;22969;-83
2021/03/22 10:53:03;;;;;;;4.32;0.98;;;9.50;99.90;;;;;;4912357;27;20166;-80
2021/03/22 10:56:04;;;;;;;2.35;0.75;;;10.00;99.90;;;;;;4895897;27;20166;-81
2021/03/22 10:58:36;;;;;;;2.80;0.65;;;10.00;99.90;;;;;;4894552;27;20522;-81
2021/03/22 11:01:04;;;;;;;3.08;0.63;;;9.90;99.90;;;;;;4957683;27;20221;-80
2021/03/22 11:03:28;;;;;;;1.85;0.43;;;9.80;99.20;;;;;;4963206;27;20081;-81
2021/03/22 11:05:54;;;;;;;2.80;0.50;;;10.00;99.00;;;;;;4962892;27;20641;-78
2021/03/22 11:08:24;;;;;;;4.40;0.57;;;10.00;99.80;;;;;;4963509;27;20087;-82
2021/03/22 11:10:48;;;;;;;6.13;0.75;;;;;;;;;;4964011;27;20081;-82
2021/03/22 11:13:15;;;;;;;1.08;0.45;;;10.40;97.50;;;;;;4963549;27;20440;-81
2021/03/22 11:15:40;;;;;;;2.97;0.45;;;10.70;97.70;;;;;;4954828;27;20156;-82
2021/03/22 11:18:06;;;;;;;3.00;1.05;;;10.60;97.00;;;;;;4955478;27;20097;-84
2021/03/22 11:20:30;;;;;;;1.88;0.32;;;10.20;95.20;;;;;;4963368;27;20107;-81
2021/03/22 11:22:53;;;;;;;1.08;0.30;;;10.20;97.50;;;;;;4963671;27;20094;-81
2021/03/22 11:25:36;;;;;;;1.58;0.45;;;10.40;95.50;;;;;;4963880;27;20110;-80
2021/03/22 11:28:01;;;;;;;4.72;0.52;;;10.40;98.60;;;;;;4966316;27;20107;-78
2021/03/22 11:30:37;;;;;;;3.80;0.50;;;10.30;98.10;;;;;;4946720;27;20134;-80
2021/03/22 11:33:06;;;;;;;0.90;0.43;;;10.10;96.70;;;;;;4967316;27;20520;-83
2021/03/22 11:35:31;;;;;;;3.53;0.40;;;10.30;96.20;;;;;;4967742;27;20162;-81
2021/03/22 11:37:57;;;;;;;5.93;0.67;;;10.40;94.60;;;;;;4958970;27;20178;-81
2021/03/22 11:40:24;;;;;;;1.70;0.57;;;10.10;96.60;;;;;;4966730;27;20166;-82
2021/03/22 11:42:54;;;;;;;4.05;0.70;;;10.20;98.90;;;;;;4966014;27;20087;-83
2021/03/22 11:45:32;;;;;;;2.45;0.75;;;10.10;97.10;;;;;;4969023;27;20075;-80
2021/03/22 11:47:55;;;;;;;1.40;0.68;;;10.50;96.50;;;;;;4966710;27;20452;-80
2021/03/22 11:50:44;;;;;;;3.65;0.50;;;10.50;96.60;;;;;;4955281;27;20166;-84
2021/03/22 11:53:12;;;;;;;2.53;0.80;;;10.70;99.90;;;;;;4963676;27;20086;-81
2021/03/22 11:55:41;;;;;;;1.33;0.60;;;10.60;99.60;;;;;;4968709;27;20095;-81
2021/03/22 11:58:05;;;;;;;6.63;0.70;;;10.60;98.50;;;;;;4967455;27;20162;-80
2021/03/22 12:00:31;;;;;;;1.27;0.60;;;10.50;96.10;;;;;;4968349;27;20078;-82
2021/03/22 12:02:58;;;;;;;1.63;0.47;;;9.90;95.20;;;;;;4967787;27;20118;-82
2021/03/22 12:05:28;;;;;;;1.30;0.47;;;9.90;95.90;;;;;;4969292;27;20518;-83
2021/03/22 12:07:51;;;;;;;2.80;0.60;;;9.70;96.10;;;;;;4965759;27;20089;-78
2021/03/22 12:10:25;;;;;;;7.03;0.70;;;9.60;96.10;;;;;;4968006;27;20173;-82
2021/03/22 12:12:48;;;;;;;3.28;0.50;;;9.40;94.20;;;;;;4966469;27;20082;-82
2021/03/22 12:15:12;;;;;;;2.55;0.47;;;9.60;93.50;;;;;;4966871;27;20166;-81
2021/03/22 12:17:37;;;;;;;2.08;0.65;;;9.60;95.80;;;;;;4966374;27;20165;-79
2021/03/22 12:20:00;;;;;;;1.08;0.50;;;9.50;94.20;;;;;;4965359;27;20095;-83
2021/03/22 12:22:24;;;;;;;1.40;0.50;;;9.50;94.90;;;;;;4951588;27;20166;-83
2021/03/22 12:24:47;;;;;;;2.25;0.60;;;9.50;98.10;;;;;;4963038;27;20441;-82
2021/03/22 12:27:13;;;;;;;1.35;0.40;;;9.60;94.90;;;;;;4966996;27;20105;-81
2021/03/22 12:29:36;;;;;;;2.22;0.43;;;9.80;96.20;;;;;;4966318;27;23400;-81
2021/03/22 12:31:59;;;;;;;1.48;0.38;;;9.80;95.30;;;;;;4967295;27;20143;-82
2021/03/22 12:34:23;;;;;;;5.18;0.50;;;9.70;93.00;;;;;;4966630;27;20158;-83
2021/03/22 12:36:47;;;;;;;3.03;0.43;;;9.90;94.00;;;;;;4965439;27;20553;-82
2021/03/22 12:39:19;;;;;;;2.05;0.43;;;10.10;93.20;;;;;;4963811;27;20167;-83
2021/03/22 12:41:42;;;;;;;2.88;0.60;;;10.30;97.60;;;;;;4966849;27;20090;-82
2021/03/22 12:44:10;;;;;;;1.13;0.63;;;10.60;97.80;;;;;;4966467;27;20132;-80
2021/03/22 12:46:32;;;;;;;1.15;0.40;;;10.60;96.10;;;;;;4965140;27;20082;-81
2021/03/22 12:48:55;;;;;;;5.18;0.75;;;10.40;94.50;;;;;;4968299;27;20089;-79
2021/03/22 12:51:18;;;;;;;2.13;0.80;;;10.00;96.20;;;;;;4968027;27;24897;-79
2021/03/22 12:53:41;;;;;;;2.33;0.70;;;10.10;95.60;;;;;;4968370;27;20087;-80
2021/03/22 12:56:05;;;;;;;2.80;0.88;;;9.90;95.70;;;;;;4973753;27;20109;-80
2021/03/22 12:58:35;;;;;;;1.00;0.63;;;9.90;97.60;;;;;;4975036;27;20083;-78
2021/03/22 13:01:01;;;;;;;2.47;0.68;;;9.80;96.00;;;;;;4974486;27;20094;-81
2021/03/22 13:03:24;;;;;;;;;;;9.90;96.20;;;;;;4980748;27;20083;-80
2021/03/22 13:05:52;;;;;;;1.35;0.60;;;9.80;92.90;;;;;;4974749;27;19963;-80
2021/03/22 13:08:21;;;;;;;0.93;0.40;;;9.80;96.20;;;;;;4975055;27;20170;-80
2021/03/22 13:10:44;;;;;;;1.75;0.40;;;9.70;94.20;;;;;;4976032;27;20087;-79
2021/03/22 13:13:08;;;;;;;2.47;0.40;;;9.70;96.40;;;;;;4978807;27;20075;-81
2021/03/22 13:15:41;;;;;;;2.30;0.50;;;9.80;93.90;;;;;;4974830;27;20094;-80
2021/03/22 13:18:13;;;;;;;2.53;0.80;;;9.80;94.10;;;;;;4981953;27;20144;-81
2021/03/22 13:20:36;;;;;;;1.85;0.50;;;9.80;94.00;;;;;;4973360;27;20087;-79
2021/03/22 13:23:00;;;;;;;2.78;0.40;;;9.50;92.10;;;;;;4988359;27;20466;-80
2021/03/22 13:25:23;;;;;;;0.95;0.30;;;9.50;93.90;;;;;;4970784;27;20095;-79
2021/03/22 13:27:49;;;;;;;0.80;0.35;;;9.50;93.70;;;;;;4966988;27;20101;-77
2021/03/22 13:30:15;;;;;;;;;;;9.50;95.60;;;;;;4975730;27;20143;-82
2021/03/22 13:32:38;;;;;;;0.53;0.27;;;9.50;94.30;;;;;;4974219;27;19990;-79